createdAt,value
2018-08-25T00:02:07.947Z,6.60
2018-08-25T00:07:42.800Z,5.50
2018-08-25T00:10:19.796Z,5.57
2018-08-25T00:13:01.527Z,5.47
2018-08-25T00:15:36.796Z,5.57
2018-08-25T00:18:16.719Z,5.70
2018-08-25T00:21:22.330Z,6.00
2018-08-25T00:24:23.885Z,5.63
2018-08-25T00:27:32.809Z,5.50
2018-08-25T00:48:23.700Z,4.77
2018-08-25T01:04:00.019Z,5.93
2018-08-25T01:09:49.219Z,6.00
2018-08-25T01:12:46.048Z,5.67
2018-08-25T01:15:28.702Z,5.70
2018-08-25T01:21:24.934Z,5.63
2018-08-25T01:24:28.604Z,5.47
2018-08-25T01:29:59.488Z,5.47
2018-08-25T01:32:37.933Z,4.63
2018-08-25T01:35:16.593Z,4.83
2018-08-25T01:37:52.485Z,5.13
2018-08-25T01:40:47.671Z,4.47
2018-08-25T01:43:33.873Z,5.13
2018-08-25T01:46:18.343Z,4.40
2018-08-25T01:49:05.155Z,4.73
2018-08-25T01:51:51.661Z,4.70
2018-08-25T02:00:20.061Z,4.77
2018-08-25T02:06:05.082Z,4.80
2018-08-25T06:39:36.529Z,5.97
2018-08-25T06:42:05.781Z,5.70
2018-08-25T06:44:55.937Z,5.83
2018-08-25T06:48:17.522Z,5.90
2018-08-25T06:53:50.654Z,5.73
2018-08-25T06:56:26.167Z,5.90
2018-08-25T06:58:57.921Z,6.43
2018-08-25T07:01:26.899Z,5.87
2018-08-25T07:03:58.388Z,5.67
2018-08-25T07:06:30.663Z,5.70
2018-08-25T07:09:01.872Z,5.30
2018-08-25T07:11:33.714Z,5.60
2018-08-25T07:14:07.009Z,5.53
2018-08-25T07:16:42.318Z,5.60
2018-08-25T07:19:11.965Z,5.27
2018-08-25T07:21:43.359Z,6.50
2018-08-25T07:24:17.521Z,5.87
2018-08-25T07:26:47.760Z,6.13
2018-08-25T07:29:17.044Z,5.53
2018-08-25T07:31:47.353Z,5.70
2018-08-25T07:34:17.110Z,6.07
2018-08-25T07:36:48.703Z,5.47
2018-08-25T07:39:18.766Z,6.17
2018-08-25T07:41:47.754Z,6.73
2018-08-25T07:44:18.083Z,6.67
2018-08-25T07:46:51.914Z,5.77
2018-08-25T07:49:22.194Z,6.77
2018-08-25T07:51:52.363Z,13.77
2018-08-25T07:54:21.682Z,6.10
2018-08-25T07:56:50.856Z,7.80
2018-08-25T07:59:22.405Z,6.63
2018-08-25T08:01:51.744Z,6.63
2018-08-25T08:04:20.976Z,6.80
2018-08-25T08:06:56.735Z,6.70
2018-08-25T08:09:26.468Z,6.93
2018-08-25T08:11:55.739Z,8.53
2018-08-25T08:14:25.444Z,8.00
2018-08-25T08:16:59.935Z,6.20
2018-08-25T08:19:30.258Z,7.33
2018-08-25T08:22:02.791Z,6.93
2018-08-25T08:24:35.188Z,6.47
2018-08-25T08:27:04.810Z,7.30
2018-08-25T08:29:34.329Z,5.90
2018-08-25T08:32:04.539Z,5.40
2018-08-25T08:34:37.895Z,4.23
2018-08-25T08:37:08.809Z,5.37
2018-08-25T08:39:40.274Z,5.07
2018-08-25T08:42:11.972Z,5.07
2018-08-25T08:44:43.945Z,4.53
2018-08-25T08:47:13.298Z,5.23
2018-08-25T08:49:53.721Z,4.90
2018-08-25T08:52:24.127Z,4.57
2018-08-25T08:54:56.605Z,4.40
2018-08-25T08:57:36.563Z,4.43
2018-08-25T09:00:19.718Z,4.20
2018-08-25T09:02:49.964Z,4.13
2018-08-25T09:08:24.757Z,4.57
2018-08-25T09:10:57.168Z,5.27
2018-08-25T09:13:32.067Z,5.00
2018-08-25T09:16:03.357Z,5.80
2018-08-25T09:18:34.662Z,4.57
2018-08-25T09:21:06.138Z,4.80
2018-08-25T09:26:48.763Z,4.33
2018-08-25T09:29:20.981Z,4.10
2018-08-25T09:31:52.982Z,4.00
2018-08-25T09:34:25.251Z,4.43
2018-08-25T09:36:58.916Z,4.80
2018-08-25T09:39:28.862Z,4.30
2018-08-25T09:41:59.917Z,4.50
2018-08-25T09:44:31.315Z,4.30
2018-08-25T09:47:01.191Z,4.17
2018-08-25T09:49:30.471Z,4.23
2018-08-25T09:52:00.035Z,4.20
2018-08-25T09:54:29.029Z,4.00
2018-08-25T09:56:58.343Z,3.60
2018-08-25T09:59:27.277Z,3.80
2018-08-25T10:02:02.888Z,3.53
2018-08-25T10:04:32.934Z,3.50
2018-08-25T10:07:02.750Z,3.50
2018-08-25T10:09:31.640Z,3.67
2018-08-25T10:12:00.825Z,3.40
2018-08-25T10:14:30.648Z,3.50
2018-08-25T10:16:59.962Z,3.70
2018-08-25T10:19:29.088Z,3.70
2018-08-25T10:21:58.027Z,3.87
2018-08-25T10:24:27.191Z,3.90
2018-08-25T10:27:03.678Z,4.83
2018-08-25T10:29:33.559Z,4.50
2018-08-25T10:32:03.165Z,3.93
2018-08-25T10:34:32.492Z,4.73
2018-08-25T10:37:01.289Z,4.17
2018-08-25T10:39:30.656Z,5.10
2018-08-25T10:42:00.413Z,5.37
2018-08-25T10:44:31.206Z,5.57
2018-08-25T10:47:01.745Z,4.40
2018-08-25T10:49:32.068Z,4.63
2018-08-25T10:52:01.996Z,4.47
2018-08-25T10:57:45.532Z,4.40
2018-08-25T11:00:19.704Z,4.23
2018-08-25T11:02:49.709Z,5.40
2018-08-25T11:05:19.497Z,4.67
2018-08-25T11:07:48.354Z,4.77
2018-08-25T11:10:23.191Z,5.30
2018-08-25T11:13:06.720Z,4.60
2018-08-25T11:15:47.193Z,5.03
2018-08-25T11:18:25.394Z,4.60
2018-08-25T11:23:57.894Z,4.87
2018-08-25T11:26:50.724Z,4.67
2018-08-25T11:32:28.136Z,4.37
2018-08-25T11:38:07.368Z,4.73
2018-08-25T11:41:07.325Z,5.00
2018-08-25T11:49:24.100Z,5.33
2018-08-25T11:52:10.552Z,7.33
2018-08-25T11:55:03.305Z,4.93
2018-08-25T11:57:40.484Z,4.70
2018-08-25T12:00:20.551Z,4.83
2018-08-25T12:03:03.830Z,4.70
2018-08-25T12:05:42.897Z,5.00
2018-08-25T12:08:22.277Z,6.33
2018-08-25T12:10:58.816Z,5.13
2018-08-25T12:16:16.583Z,4.87
2018-08-25T12:18:57.020Z,4.93
2018-08-25T12:21:45.766Z,4.67
2018-08-25T12:24:35.547Z,5.10
2018-08-25T12:30:02.923Z,5.63
2018-08-25T12:32:50.143Z,4.90
2018-08-25T12:35:36.353Z,4.60
2018-08-25T12:38:12.938Z,5.03
2018-08-25T12:41:04.248Z,5.20
2018-08-25T12:43:44.305Z,5.50
2018-08-25T12:46:26.688Z,5.50
2018-08-25T12:49:13.512Z,5.30
